createdAt,value
2023-02-09T00:02:10.875Z,79.43
2023-02-09T00:07:05.941Z,75.50
2023-02-09T00:12:16.422Z,67.10
2023-02-09T00:17:10.222Z,54.67
2023-02-09T00:22:04.064Z,63.43
2023-02-09T00:26:58.724Z,47.33
2023-02-09T00:31:52.707Z,47.47
2023-02-09T00:36:45.941Z,55.73
2023-02-09T00:41:56.834Z,60.57
2023-02-09T00:51:46.759Z,67.37
2023-02-09T00:56:40.131Z,63.33
2023-02-09T01:01:33.534Z,57.73
2023-02-09T01:06:28.182Z,54.47
2023-02-09T01:11:28.137Z,77.20
2023-02-09T01:16:21.428Z,64.33
2023-02-09T01:21:16.344Z,73.90
2023-02-09T01:26:12.644Z,76.07
2023-02-09T01:31:07.346Z,79.63
2023-02-09T01:36:01.473Z,76.27
2023-02-09T01:40:54.680Z,62.03
2023-02-09T01:45:51.316Z,63.23
2023-02-09T01:50:48.945Z,61.97
2023-02-09T01:55:48.671Z,60.33
2023-02-09T02:00:42.013Z,58.28
2023-02-09T02:05:40.966Z,64.10
2023-02-09T02:10:34.544Z,36.27
2023-02-09T02:15:32.640Z,38.17
2023-02-09T02:20:57.771Z,42.73
2023-02-09T02:26:25.392Z,40.40
2023-02-09T02:32:04.816Z,41.67
2023-02-09T02:37:10.578Z,40.87
2023-02-09T02:42:27.785Z,43.00
2023-02-09T02:47:23.854Z,40.70
2023-02-09T02:52:17.353Z,43.03
2023-02-09T02:57:14.960Z,46.90
2023-02-09T03:02:12.932Z,48.53
2023-02-09T03:07:08.144Z,46.67
2023-02-09T03:12:14.229Z,45.20
2023-02-09T03:17:25.582Z,45.40
2023-02-09T03:22:27.878Z,39.97
2023-02-09T03:27:26.273Z,39.50
2023-02-09T03:32:21.785Z,38.77
2023-02-09T03:37:15.210Z,40.57
2023-02-09T03:42:10.077Z,80.03
2023-02-09T03:47:05.741Z,71.83
2023-02-09T03:52:00.934Z,63.63
2023-02-09T03:56:54.188Z,76.40
2023-02-09T04:01:50.242Z,91.10
2023-02-09T04:06:43.523Z,87.57
2023-02-09T04:11:36.944Z,74.20
2023-02-09T04:16:30.280Z,63.87
2023-02-09T04:21:25.177Z,72.03
2023-02-09T04:26:18.509Z,56.27
2023-02-09T04:31:12.482Z,51.87
2023-02-09T04:36:07.404Z,61.03
2023-02-09T04:41:03.482Z,61.67
2023-02-09T04:46:00.188Z,75.00
2023-02-09T04:50:54.440Z,91.13
2023-02-09T04:55:49.004Z,61.20
2023-02-09T05:00:45.166Z,53.37
2023-02-09T05:05:40.426Z,53.53
2023-02-09T05:10:34.226Z,63.57
2023-02-09T05:15:27.461Z,48.03
2023-02-09T05:20:22.454Z,19.83
2023-02-09T05:25:15.664Z,19.80
2023-02-09T05:30:10.130Z,19.63
2023-02-09T05:35:03.581Z,41.53
2023-02-09T05:39:58.300Z,24.87
2023-02-09T05:44:52.691Z,22.83
2023-02-09T05:49:46.225Z,42.33
2023-02-09T05:54:39.910Z,62.87
2023-02-09T05:59:34.732Z,67.87
2023-02-09T06:04:28.827Z,77.00
2023-02-09T06:09:22.861Z,57.00
2023-02-09T06:14:16.348Z,49.70
2023-02-09T06:19:14.224Z,50.20
2023-02-09T06:24:07.701Z,55.23
2023-02-09T06:29:01.082Z,50.27
2023-02-09T06:33:54.309Z,40.60
2023-02-09T06:38:48.892Z,83.83
2023-02-09T06:43:42.272Z,55.00
2023-02-09T06:48:35.777Z,47.03
2023-02-09T06:53:29.168Z,53.77
2023-02-09T06:58:23.846Z,59.13
2023-02-09T07:03:17.117Z,54.43
2023-02-09T07:08:10.594Z,60.73
2023-02-09T07:13:03.872Z,46.90
2023-02-09T07:17:59.473Z,57.87
2023-02-09T07:22:52.754Z,58.63
2023-02-09T07:27:46.393Z,22.47
2023-02-09T07:32:39.697Z,23.70
2023-02-09T07:37:35.767Z,20.60
2023-02-09T07:42:29.204Z,19.10
2023-02-09T07:47:26.691Z,22.73
2023-02-09T07:52:19.986Z,27.00
2023-02-09T07:57:15.277Z,24.53
2023-02-09T08:02:17.664Z,25.17
2023-02-09T08:07:10.957Z,20.97
2023-02-09T08:12:20.207Z,21.33
2023-02-09T08:17:26.105Z,19.13
2023-02-09T08:22:19.684Z,23.33
2023-02-09T08:27:16.180Z,24.53
2023-02-09T08:32:09.733Z,27.33
2023-02-09T08:37:07.196Z,19.63
2023-02-09T08:42:00.469Z,20.07
2023-02-09T08:46:54.273Z,18.47
2023-02-09T08:51:47.629Z,16.90
2023-02-09T08:56:42.888Z,19.17
2023-02-09T09:01:43.468Z,17.03
2023-02-09T09:06:36.744Z,20.05
2023-02-09T09:11:30.060Z,16.37
2023-02-09T09:16:25.030Z,17.47
2023-02-09T09:21:19.893Z,14.77
2023-02-09T09:26:13.375Z,15.83
2023-02-09T09:31:09.911Z,16.20
2023-02-09T09:36:38.700Z,14.27
2023-02-09T09:47:15.803Z,17.03
2023-02-09T09:52:53.934Z,17.37
2023-02-09T09:57:47.819Z,14.10
2023-02-09T10:02:55.913Z,13.87
2023-02-09T10:08:25.712Z,13.97
2023-02-09T10:13:40.090Z,14.05
2023-02-09T10:20:02.515Z,12.63
2023-02-09T10:26:26.403Z,11.13
2023-02-09T10:32:28.922Z,12.37
2023-02-09T10:38:02.043Z,11.80
2023-02-09T10:56:25.004Z,12.18
2023-02-09T11:03:01.053Z,12.20
2023-02-09T11:07:46.616Z,11.90
2023-02-09T11:12:46.285Z,10.50
2023-02-09T11:17:45.865Z,10.67
2023-02-09T11:23:08.518Z,10.33
2023-02-09T11:28:44.733Z,11.17
2023-02-09T11:33:56.505Z,9.77
2023-02-09T11:38:54.373Z,9.80
2023-02-09T11:43:57.989Z,10.10
2023-02-09T11:49:13.794Z,10.43
2023-02-09T11:54:37.158Z,10.10
2023-02-09T11:59:38.234Z,12.10
2023-02-09T12:04:39.112Z,9.47
2023-02-09T12:09:44.970Z,8.60
2023-02-09T12:15:01.769Z,9.07
2023-02-09T12:20:00.672Z,7.13
2023-02-09T12:25:14.215Z,7.70
2023-02-09T12:30:40.904Z,7.40
2023-02-09T12:35:41.433Z,7.00
2023-02-09T12:40:38.824Z,7.97
2023-02-09T12:45:36.212Z,6.97
2023-02-09T12:50:50.058Z,9.87
2023-02-09T12:56:03.067Z,7.50
2023-02-09T13:00:58.600Z,8.03
2023-02-09T13:05:58.539Z,7.33
2023-02-09T13:11:04.752Z,6.73
2023-02-09T13:16:31.299Z,9.30
2023-02-09T13:21:37.562Z,8.13
2023-02-09T13:26:33.931Z,7.63
2023-02-09T13:31:35.031Z,8.90
2023-02-09T13:36:47.506Z,8.53
2023-02-09T13:41:41.838Z,9.03
2023-02-09T13:46:45.116Z,9.73
2023-02-09T13:51:39.950Z,9.27
2023-02-09T13:56:44.952Z,8.90
2023-02-09T14:01:51.904Z,9.57
2023-02-09T14:06:58.477Z,7.83
2023-02-09T14:11:55.053Z,9.43
2023-02-09T14:17:22.760Z,9.17
2023-02-09T14:22:35.706Z,9.67
2023-02-09T14:27:33.049Z,11.00
2023-02-09T14:32:35.298Z,10.40
2023-02-09T14:37:32.106Z,10.50
2023-02-09T14:42:25.710Z,11.53
2023-02-09T14:47:38.739Z,10.93
2023-02-09T14:52:33.813Z,13.77
2023-02-09T14:57:29.873Z,11.23
2023-02-09T15:02:26.377Z,10.20
2023-02-09T15:07:25.328Z,12.13
2023-02-09T15:12:27.597Z,12.47
2023-02-09T15:17:23.744Z,11.17
2023-02-09T15:22:18.302Z,12.07
2023-02-09T15:27:17.968Z,13.27
2023-02-09T15:32:43.772Z,14.07
2023-02-09T15:37:42.439Z,13.80
2023-02-09T15:42:59.399Z,15.90
2023-02-09T15:47:56.821Z,14.50
2023-02-09T15:52:59.598Z,15.20
2023-02-09T15:58:35.419Z,16.37
2023-02-09T16:03:38.969Z,17.90
2023-02-09T16:08:34.624Z,19.27
2023-02-09T16:13:34.015Z,17.27
2023-02-09T16:18:31.512Z,20.97
2023-02-09T16:23:27.465Z,36.53
2023-02-09T16:28:27.054Z,24.00
2023-02-09T16:33:20.844Z,35.43
2023-02-09T16:38:19.166Z,34.87
2023-02-09T16:43:14.392Z,34.50
2023-02-09T16:48:17.860Z,34.60
2023-02-09T16:53:19.262Z,35.27
2023-02-09T16:58:35.767Z,36.30
2023-02-09T17:03:46.072Z,37.97
2023-02-09T17:09:28.646Z,35.65
2023-02-09T17:14:42.268Z,39.63
2023-02-09T17:19:50.069Z,39.07
2023-02-09T17:24:50.989Z,39.20
2023-02-09T17:29:50.689Z,39.60
2023-02-09T17:34:44.280Z,42.23
2023-02-09T17:39:43.498Z,42.30
2023-02-09T17:44:46.570Z,41.93
2023-02-09T17:49:47.313Z,47.73
2023-02-09T17:54:50.161Z,48.80
2023-02-09T18:05:17.764Z,157.47
2023-02-09T18:10:30.704Z,148.93
2023-02-09T18:15:25.612Z,139.37
2023-02-09T18:20:32.258Z,130.23
2023-02-09T18:25:36.592Z,141.00
2023-02-09T18:30:37.443Z,136.50
2023-02-09T18:35:35.417Z,150.27
2023-02-09T18:40:32.150Z,127.10
2023-02-09T18:45:25.887Z,127.97
2023-02-09T18:50:22.204Z,114.93
2023-02-09T18:55:18.594Z,133.13
2023-02-09T19:00:15.019Z,138.93
2023-02-09T19:05:11.082Z,149.73
2023-02-09T19:10:06.051Z,100.67
2023-02-09T19:15:01.538Z,116.77
2023-02-09T19:20:05.146Z,72.73
2023-02-09T19:24:59.228Z,59.40
2023-02-09T19:29:59.201Z,54.23
2023-02-09T19:34:53.880Z,57.95
2023-02-09T19:39:56.261Z,59.63
2023-02-09T19:44:50.458Z,54.60
2023-02-09T19:50:03.297Z,51.47
2023-02-09T19:54:58.623Z,89.35
2023-02-09T19:59:57.051Z,104.57
2023-02-09T20:04:53.092Z,103.53
2023-02-09T20:09:47.143Z,90.90
2023-02-09T20:14:42.054Z,98.17
2023-02-09T20:19:39.330Z,98.47
2023-02-09T20:24:32.897Z,106.87
2023-02-09T20:29:26.173Z,109.23
2023-02-09T20:34:23.835Z,122.87
2023-02-09T20:39:18.025Z,128.57
2023-02-09T20:44:30.921Z,123.53
2023-02-09T20:49:31.481Z,131.30
2023-02-09T20:54:25.285Z,138.05
2023-02-09T20:59:18.713Z,134.17
2023-02-09T21:04:14.164Z,126.53
2023-02-09T21:09:10.636Z,126.90
2023-02-09T21:14:04.486Z,122.13
2023-02-09T21:18:57.872Z,104.43
2023-02-09T21:23:51.208Z,104.20
2023-02-09T21:28:48.373Z,105.93
2023-02-09T21:33:41.741Z,115.90
2023-02-09T21:38:41.657Z,137.43
2023-02-09T21:43:35.198Z,115.95
2023-02-09T21:48:31.943Z,112.37
2023-02-09T21:53:25.247Z,108.03
2023-02-09T21:58:18.533Z,98.27
2023-02-09T22:03:11.865Z,86.60
2023-02-09T22:08:06.821Z,93.70
2023-02-09T22:13:00.160Z,107.50
2023-02-09T22:17:53.475Z,104.10
2023-02-09T22:22:46.836Z,129.00
2023-02-09T22:27:41.452Z,96.17
2023-02-09T22:32:34.774Z,74.60
2023-02-09T22:37:28.051Z,72.57
2023-02-09T22:42:21.297Z,80.73
2023-02-09T22:47:15.946Z,73.60
2023-02-09T22:52:10.538Z,72.33
2023-02-09T22:57:03.944Z,76.00
2023-02-09T23:01:57.290Z,70.17
2023-02-09T23:06:51.977Z,81.37
2023-02-09T23:11:45.528Z,74.70
2023-02-09T23:16:40.088Z,70.43
2023-02-09T23:21:35.833Z,72.97
2023-02-09T23:26:30.657Z,57.13
2023-02-09T23:31:24.415Z,57.73
2023-02-09T23:36:19.883Z,48.87
2023-02-09T23:41:15.121Z,50.47
2023-02-09T23:46:12.866Z,70.43
2023-02-09T23:51:07.791Z,59.90
2023-02-09T23:56:03.865Z,64.20
